Korf, Russia
Current Conditions -  °F | °C
As of 1:00 PM on Wednesday 28 Jan 2015 (Local Time) from UHMA Reporting Station
Clear Clear  
Wind Chill: -49°   Ceiling: Unl
Heat Index: -26°   Visibility: 6mi
Dew Point: -29°   Wind: 11mph
Humidity: 83%   Direction: 10°N
Pressure: 30.45"   Gusts: NA
Location:  60.32°N, 165.83°E
Report Text: UHMA 280100Z 01005MPS 9999 SKC M32/M34 Q1031 NOSIG RMKQFE770/1026 887///45
Loading
Personal Weather Stations






























Interactive Weather Map New forecast layout! Learn more

10-Day Weather Forecast

Advertisements
Track Severe Weather on mobile